Time;durP1;ratioP1;P1;durP2;ratioP2;P2;SDS_P1;SDS_P2;PMS_P1;PMS_P2;Temp;Humidity;BMP_temperature;BMP_pressure;BME280_temperature;BME280_humidity;BME280_pressure;Samples;Min_cycle;Max_cycle;Signal;HPM_P1;HPM_P2
2023/10/13 00:01:26;;;;;;;2.70;2.27;;;19.90;71.50;;;;;;5026524;28;20463;-51
2023/10/13 00:03:56;;;;;;;3.30;3.00;;;19.90;71.00;;;;;;5048896;28;20469;-51
2023/10/13 00:06:26;;;;;;;4.50;3.07;;;19.90;71.70;;;;;;5027974;28;20439;-50
2023/10/13 00:08:55;;;;;;;3.33;2.57;;;19.90;71.50;;;;;;5042814;28;20439;-50
2023/10/13 00:11:23;;;;;;;4.70;2.73;;;19.80;71.00;;;;;;5050483;28;20470;-50
2023/10/13 00:13:54;;;;;;;4.47;3.40;;;19.80;71.00;;;;;;5050722;28;20462;-51
2023/10/13 00:16:24;;;;;;;3.77;3.30;;;19.80;71.20;;;;;;5045780;28;20534;-50
2023/10/13 00:18:54;;;;;;;3.93;2.50;;;19.80;71.60;;;;;;5031866;28;20470;-51
2023/10/13 00:21:31;;;;;;;2.77;2.57;;;19.80;71.00;;;;;;5047430;28;20944;-51
2023/10/13 00:24:05;;;;;;;4.10;3.43;;;19.80;71.30;;;;;;5031767;28;20463;-50
2023/10/13 00:26:36;;;;;;;2.60;2.40;;;19.80;71.00;;;;;;5046637;28;20470;-50
2023/10/13 00:29:15;;;;;;;3.93;3.10;;;19.80;71.00;;;;;;5046222;28;20527;-50
2023/10/13 00:31:48;;;;;;;3.17;2.87;;;19.80;71.50;;;;;;5045686;28;20740;-50
2023/10/13 00:34:26;;;;;;;3.77;2.70;;;19.80;71.50;;;;;;5044924;28;20465;-51
2023/10/13 00:39:44;;;;;;;2.70;2.20;;;19.80;70.90;;;;;;5048153;28;20854;-51
2023/10/13 00:42:19;;;;;;;4.73;2.53;;;19.80;71.00;;;;;;5045596;28;20702;-49
2023/10/13 00:44:49;;;;;;;2.93;2.63;;;19.80;70.90;;;;;;5048133;28;20568;-51
2023/10/13 00:47:32;;;;;;;2.33;2.13;;;19.80;71.00;;;;;;5042647;28;21026;-50
2023/10/13 00:50:01;;;;;;;2.97;2.73;;;19.80;71.00;;;;;;5046719;28;20530;-51
2023/10/13 00:52:30;;;;;;;2.27;2.07;;;19.80;71.00;;;;;;5043442;28;20475;-50
2023/10/13 00:54:59;;;;;;;4.23;2.47;;;19.80;71.00;;;;;;5049580;28;20451;-50
2023/10/13 00:57:28;;;;;;;3.10;2.83;;;19.80;71.20;;;;;;5046440;28;20819;-50
2023/10/13 00:59:59;;;;;;;3.10;2.80;;;19.80;71.20;;;;;;5047385;28;20984;-50
2023/10/13 01:02:37;;;;;;;3.53;2.77;;;19.80;71.50;;;;;;5049976;28;20467;-50
2023/10/13 01:05:09;;;;;;;3.30;2.60;;;19.80;71.20;;;;;;5049918;28;20832;-51
2023/10/13 01:07:39;;;;;;;3.03;2.67;;;19.80;71.70;;;;;;5041847;28;20482;-49
2023/10/13 01:10:14;;;;;;;3.97;2.77;;;19.80;71.40;;;;;;5049529;28;20467;-51
2023/10/13 01:12:42;;;;;;;2.60;2.40;;;19.80;71.50;;;;;;5030098;28;20470;-49
2023/10/13 01:15:11;;;;;;;3.77;2.83;;;19.80;71.50;;;;;;5048630;28;20462;-51
2023/10/13 01:17:38;;;;;;;3.20;2.60;;;19.80;71.40;;;;;;5047092;28;20466;-51
2023/10/13 01:20:10;;;;;;;2.80;2.57;;;19.80;71.60;;;;;;5046473;28;20468;-49
2023/10/13 01:22:42;;;;;;;3.50;2.60;;;19.70;71.60;;;;;;5039375;28;20907;-50
2023/10/13 01:25:18;;;;;;;3.53;2.73;;;19.70;71.30;;;;;;5050634;28;20789;-51
2023/10/13 01:27:48;;;;;;;4.23;2.70;;;19.70;71.30;;;;;;5060828;28;20852;-51
2023/10/13 01:30:22;;;;;;;2.90;2.60;;;19.70;71.30;;;;;;5061402;28;20435;-51
2023/10/13 01:32:50;;;;;;;2.70;2.27;;;19.80;71.40;;;;;;5044347;28;20947;-50
2023/10/13 01:35:25;;;;;;;3.10;2.80;;;19.80;71.50;;;;;;5045443;28;20522;-50
2023/10/13 01:37:52;;;;;;;2.57;2.37;;;19.70;71.50;;;;;;5039616;28;20462;-48
2023/10/13 01:40:28;;;;;;;4.77;2.97;;;19.80;71.50;;;;;;5061133;28;20459;-49
2023/10/13 01:42:56;;;;;;;2.83;2.33;;;19.80;71.80;;;;;;5012363;28;20459;-51
2023/10/13 01:45:28;;;;;;;3.33;2.83;;;19.80;71.70;;;;;;5028931;28;20495;-50
2023/10/13 01:47:56;;;;;;;4.30;2.60;;;19.80;71.90;;;;;;5028309;28;20460;-49
2023/10/13 01:50:29;;;;;;;3.50;3.20;;;19.80;71.70;;;;;;5014615;28;20436;-50
2023/10/13 01:53:10;;;;;;;3.63;2.37;;;19.70;71.70;;;;;;5041390;28;20470;-50
2023/10/13 01:55:42;;;;;;;3.00;2.60;;;19.70;71.50;;;;;;5045128;28;20617;-50
2023/10/13 01:58:14;;;;;;;2.50;1.97;;;19.80;72.10;;;;;;5041767;28;20435;-51
2023/10/13 02:00:43;;;;;;;3.17;2.50;;;19.80;71.70;;;;;;5044487;28;20609;-49
2023/10/13 02:03:14;;;;;;;3.97;2.63;;;19.70;71.60;;;;;;5046360;28;20493;-50
2023/10/13 02:05:48;;;;;;;3.37;2.37;;;19.70;72.00;;;;;;5044500;28;20463;-51
2023/10/13 02:08:18;;;;;;;2.80;2.60;;;19.70;71.80;;;;;;5037259;28;20448;-51
2023/10/13 02:10:48;;;;;;;3.03;2.73;;;19.70;71.90;;;;;;5043018;28;20463;-51
2023/10/13 02:13:17;;;;;;;2.20;2.00;;;19.70;72.40;;;;;;5039420;28;20471;-51
2023/10/13 02:15:47;;;;;;;3.20;2.27;;;19.70;72.10;;;;;;5036814;28;20480;-48
2023/10/13 02:18:20;;;;;;;3.00;2.50;;;19.70;71.90;;;;;;5037714;28;20527;-49
2023/10/13 02:20:54;;;;;;;2.87;2.57;;;19.70;72.10;;;;;;5037740;28;20869;-48
2023/10/13 02:23:22;;;;;;;2.90;2.67;;;19.70;72.00;;;;;;5040146;28;20538;-51
2023/10/13 02:26:00;;;;;;;2.73;2.53;;;19.70;71.80;;;;;;5027744;28;20443;-49
2023/10/13 02:28:28;;;;;;;4.73;3.20;;;19.70;71.80;;;;;;5046351;28;20435;-48
2023/10/13 02:30:57;;;;;;;3.67;1.90;;;19.70;71.90;;;;;;5029389;28;20455;-50
2023/10/13 02:33:29;;;;;;;2.37;2.17;;;19.70;71.70;;;;;;5041533;28;20440;-50
2023/10/13 02:35:58;;;;;;;3.20;2.90;;;19.70;72.30;;;;;;5033713;28;20956;-51
2023/10/13 02:38:28;;;;;;;3.30;1.93;;;19.70;72.10;;;;;;5038743;28;21036;-49
2023/10/13 02:41:05;;;;;;;2.50;2.10;;;19.70;71.90;;;;;;5030404;28;20506;-50
2023/10/13 02:43:36;;;;;;;4.13;3.07;;;19.70;72.00;;;;;;5042960;28;20466;-51
2023/10/13 02:46:05;;;;;;;5.20;2.50;;;19.70;72.20;;;;;;5029932;28;20455;-52
2023/10/13 02:48:39;;;;;;;4.27;2.97;;;19.70;72.10;;;;;;5042675;28;20436;-51
2023/10/13 02:51:16;;;;;;;2.50;2.30;;;19.70;72.30;;;;;;5027922;28;20526;-49
2023/10/13 02:53:49;;;;;;;3.23;2.83;;;19.70;72.60;;;;;;5037914;28;20448;-51
2023/10/13 02:56:20;;;;;;;3.00;2.47;;;19.70;72.10;;;;;;5041112;28;20539;-51
2023/10/13 02:58:53;;;;;;;3.20;2.83;;;19.70;71.90;;;;;;5037850;28;20454;-50
2023/10/13 03:01:26;;;;;;;3.23;2.30;;;19.70;72.30;;;;;;5037668;28;21013;-52
2023/10/13 03:03:55;;;;;;;2.67;2.40;;;19.70;72.20;;;;;;5039570;28;20464;-52
2023/10/13 03:06:32;;;;;;;2.63;2.43;;;19.70;72.20;;;;;;5035858;28;20845;-51
2023/10/13 03:09:13;;;;;;;2.90;2.60;;;19.70;72.30;;;;;;5042911;28;20937;-51
2023/10/13 03:11:48;;;;;;;2.60;2.30;;;19.70;72.30;;;;;;5043853;28;20464;-51
2023/10/13 03:14:31;;;;;;;2.20;1.90;;;19.70;72.10;;;;;;5042548;28;20460;-51
2023/10/13 03:17:04;;;;;;;2.60;2.37;;;19.70;72.10;;;;;;5042782;28;20467;-51
2023/10/13 03:19:34;;;;;;;2.70;2.50;;;19.70;72.20;;;;;;5029220;28;20447;-49
2023/10/13 03:22:06;;;;;;;2.97;2.67;;;19.70;72.20;;;;;;5025421;28;20858;-49
2023/10/13 03:24:35;;;;;;;3.10;2.03;;;19.70;72.10;;;;;;5028479;28;20456;-51
2023/10/13 03:27:08;;;;;;;3.37;3.00;;;19.70;71.80;;;;;;5027161;28;20464;-50
2023/10/13 03:29:38;;;;;;;2.43;2.23;;;19.70;72.10;;;;;;5028069;28;20463;-51
2023/10/13 03:32:12;;;;;;;2.57;2.10;;;19.70;72.10;;;;;;5040787;28;20475;-50
2023/10/13 03:34:49;;;;;;;2.70;2.30;;;19.70;72.20;;;;;;5043103;28;20573;-51
2023/10/13 03:37:32;;;;;;;2.43;2.10;;;19.70;72.40;;;;;;5040353;28;21461;-51
2023/10/13 03:40:06;;;;;;;3.07;2.77;;;19.70;72.10;;;;;;5027596;28;20988;-50
2023/10/13 03:42:39;;;;;;;2.87;2.57;;;19.70;72.10;;;;;;5043996;28;20840;-50
2023/10/13 03:45:10;;;;;;;4.50;3.10;;;19.60;72.00;;;;;;5043417;28;20470;-50
2023/10/13 03:47:42;;;;;;;3.03;2.67;;;19.60;72.00;;;;;;5040440;28;20550;-50
2023/10/13 03:50:16;;;;;;;2.77;2.57;;;19.60;71.90;;;;;;5025229;28;20543;-50
2023/10/13 03:52:45;;;;;;;2.73;2.53;;;19.60;72.10;;;;;;5024853;28;20479;-50
2023/10/13 03:55:18;;;;;;;2.80;2.50;;;19.60;72.10;;;;;;5029523;28;20507;-50
2023/10/13 03:57:50;;;;;;;2.90;2.53;;;19.60;72.10;;;;;;5042284;28;20491;-51
2023/10/13 04:00:24;;;;;;;2.37;2.17;;;19.60;72.20;;;;;;5042234;28;20806;-51
2023/10/13 04:03:07;;;;;;;3.60;2.80;;;19.60;71.90;;;;;;5027233;28;20451;-50
2023/10/13 04:05:44;;;;;;;3.60;2.83;;;19.60;72.00;;;;;;5043526;28;20463;-50
2023/10/13 04:16:35;;;;;;;2.30;2.10;;;19.60;72.00;;;;;;5042123;28;20443;-51
2023/10/13 04:19:19;;;;;;;2.47;2.27;;;19.60;71.80;;;;;;5026141;28;20973;-50
2023/10/13 04:21:59;;;;;;;2.50;1.97;;;19.60;71.80;;;;;;5037240;28;21078;-50
2023/10/13 04:27:44;;;;;;;2.20;1.90;;;19.60;71.60;;;;;;4990145;28;20506;-50
2023/10/13 04:30:24;;;;;;;2.93;2.63;;;19.60;71.80;;;;;;5041910;28;20437;-50
2023/10/13 04:33:17;;;;;;;2.60;2.10;;;19.60;71.70;;;;;;5030917;28;21045;-50
2023/10/13 04:35:57;;;;;;;3.20;2.83;;;19.60;71.70;;;;;;5047824;28;20442;-51
2023/10/13 04:38:33;;;;;;;3.70;2.60;;;19.60;71.50;;;;;;5044278;28;20447;-51
2023/10/13 04:41:02;;;;;;;2.53;2.33;;;19.60;71.70;;;;;;5049921;28;20954;-50
2023/10/13 04:43:55;;;;;;;2.60;2.40;;;19.60;72.10;;;;;;5050348;28;20438;-51
2023/10/13 04:49:28;;;;;;;2.43;1.83;;;19.60;72.10;;;;;;5043103;28;20821;-51
2023/10/13 04:52:01;;;;;;;2.50;2.30;;;19.60;72.00;;;;;;5031149;28;20467;-49
2023/10/13 04:54:33;;;;;;;2.50;2.30;;;19.60;72.10;;;;;;5029238;28;20460;-49
2023/10/13 05:03:17;;;;;;;2.90;2.30;;;19.60;72.90;;;;;;5046549;28;20474;-50
2023/10/13 05:05:45;;;;;;;3.20;2.17;;;19.60;71.70;;;;;;5034170;28;20465;-51
2023/10/13 05:47:36;;;;;;;3.13;1.90;;;19.50;71.40;;;;;;5053093;28;20474;-50
2023/10/13 05:50:12;;;;;;;3.57;2.60;;;19.50;71.90;;;;;;5045610;28;20860;-51
2023/10/13 06:29:07;;;;;;;3.13;2.30;;;19.50;71.80;;;;;;5048543;28;20455;-51
2023/10/13 06:31:36;;;;;;;2.83;2.50;;;19.50;71.80;;;;;;5043502;28;21081;-49
2023/10/13 06:34:05;;;;;;;2.90;2.53;;;19.50;71.90;;;;;;5033049;28;21189;-49
2023/10/13 06:36:33;;;;;;;3.23;2.50;;;19.50;72.30;;;;;;5062609;28;20483;-51
2023/10/13 06:41:45;;;;;;;2.30;2.10;;;19.50;72.50;;;;;;5042597;28;20809;-51
2023/10/13 06:44:16;;;;;;;2.40;2.10;;;19.50;71.90;;;;;;5033154;28;20463;-50
2023/10/13 06:46:44;;;;;;;2.53;2.10;;;19.50;72.30;;;;;;5040794;28;20513;-50
2023/10/13 06:49:14;;;;;;;5.10;2.70;;;19.50;72.10;;;;;;5027542;28;20447;-50
2023/10/13 06:51:46;;;;;;;5.03;2.50;;;19.50;72.30;;;;;;5038770;28;20610;-49
2023/10/13 06:54:20;;;;;;;3.27;2.70;;;19.50;72.70;;;;;;5044706;28;20471;-50
2023/10/13 06:56:52;;;;;;;6.10;2.50;;;19.50;72.20;;;;;;5048972;28;20971;-50
2023/10/13 06:59:26;;;;;;;3.43;3.03;;;19.50;72.70;;;;;;5043465;28;20478;-49
2023/10/13 07:02:06;;;;;;;6.73;2.70;;;19.50;74.50;;;;;;5058440;28;20470;-50
2023/10/13 07:04:56;;;;;;;5.23;3.00;;;19.50;73.30;;;;;;5042103;28;20457;-50
2023/10/13 07:07:25;;;;;;;4.30;2.67;;;19.50;73.70;;;;;;5023411;28;20521;-50
2023/10/13 07:09:58;;;;;;;6.03;2.27;;;19.50;73.50;;;;;;5043616;28;20435;-50
2023/10/13 07:12:27;;;;;;;4.00;2.33;;;19.50;73.40;;;;;;5043228;28;20494;-50
2023/10/13 07:15:10;;;;;;;2.87;2.53;;;19.50;73.50;;;;;;5052220;28;20542;-49
2023/10/13 07:17:39;;;;;;;2.80;2.60;;;19.50;73.20;;;;;;5040500;28;20475;-50
2023/10/13 07:20:15;;;;;;;2.50;2.10;;;19.50;72.80;;;;;;5044290;28;20862;-50
2023/10/13 07:22:54;;;;;;;3.57;2.27;;;19.50;73.00;;;;;;5056926;28;20532;-50
2023/10/13 07:25:25;;;;;;;3.17;2.30;;;19.50;72.70;;;;;;5044913;28;20512;-50
2023/10/13 07:27:56;;;;;;;3.83;2.80;;;19.50;73.10;;;;;;5043891;28;20455;-50
2023/10/13 07:30:27;;;;;;;3.50;3.20;;;19.50;73.30;;;;;;5040316;28;20513;-50
2023/10/13 07:32:59;;;;;;;3.50;2.47;;;19.50;73.20;;;;;;5056364;28;20493;-51
2023/10/13 07:35:31;;;;;;;9.33;3.37;;;19.50;72.90;;;;;;5059321;28;20521;-50
2023/10/13 07:38:00;;;;;;;4.53;2.80;;;19.50;73.70;;;;;;5023261;28;20478;-50
2023/10/13 07:40:41;;;;;;;3.27;2.77;;;19.50;73.40;;;;;;5043272;28;20887;-50
2023/10/13 07:43:11;;;;;;;3.60;2.70;;;19.50;73.20;;;;;;5043467;28;20558;-53
2023/10/13 07:45:41;;;;;;;3.73;2.47;;;19.50;72.80;;;;;;5041948;28;20473;-50
2023/10/13 07:48:18;;;;;;;5.73;3.00;;;19.50;72.80;;;;;;5044470;28;20439;-50
2023/10/13 07:50:48;;;;;;;5.23;2.90;;;19.50;72.60;;;;;;5043016;28;20959;-51
2023/10/13 07:53:22;;;;;;;6.00;3.40;;;19.50;72.90;;;;;;5041853;28;20508;-50
2023/10/13 07:55:56;;;;;;;4.87;3.00;;;19.50;72.90;;;;;;5031661;28;20442;-50
2023/10/13 07:58:26;;;;;;;5.13;2.90;;;19.50;72.60;;;;;;5047136;28;20446;-50
2023/10/13 08:01:06;;;;;;;4.47;3.00;;;19.50;73.20;;;;;;5043465;28;20470;-50
2023/10/13 08:03:46;;;;;;;4.40;3.57;;;19.50;72.40;;;;;;5048516;28;20827;-50
2023/10/13 08:06:28;;;;;;;3.13;2.83;;;19.50;72.60;;;;;;5044226;28;20443;-50
2023/10/13 08:09:07;;;;;;;4.40;2.63;;;19.50;72.60;;;;;;5041488;28;20530;-50
2023/10/13 08:11:37;;;;;;;4.60;3.13;;;19.50;72.50;;;;;;5046970;28;20807;-50
2023/10/13 08:14:22;;;;;;;3.10;2.60;;;19.50;72.30;;;;;;5047246;28;20572;-50
2023/10/13 08:17:07;;;;;;;4.90;3.03;;;19.50;72.20;;;;;;5043120;28;20506;-51
2023/10/13 08:19:44;;;;;;;4.30;3.10;;;19.50;72.20;;;;;;5048350;28;20419;-51
2023/10/13 08:22:25;;;;;;;8.65;3.40;;;19.50;72.20;;;;;;5027260;28;20482;-48
2023/10/13 08:25:14;;;;;;;8.67;3.30;;;19.50;71.80;;;;;;5044585;28;20219;-50
2023/10/13 08:28:04;;;;;;;4.80;3.30;;;19.50;71.90;;;;;;5047490;28;20971;-51
2023/10/13 08:30:51;;;;;;;5.93;3.23;;;19.50;72.10;;;;;;5045959;28;20439;-52
2023/10/13 08:33:24;;;;;;;5.33;3.47;;;19.50;72.00;;;;;;5048114;28;21023;-49
2023/10/13 08:36:05;;;;;;;6.23;3.53;;;19.50;72.10;;;;;;5047273;28;20526;-51
2023/10/13 08:38:50;;;;;;;4.07;3.57;;;19.50;72.10;;;;;;5042137;28;20841;-49
2023/10/13 08:41:43;;;;;;;6.13;3.67;;;19.50;72.00;;;;;;5049593;28;20467;-51
2023/10/13 08:44:32;;;;;;;4.07;3.67;;;19.50;72.10;;;;;;5047434;28;20501;-51
2023/10/13 08:47:18;;;;;;;8.00;3.67;;;19.50;72.30;;;;;;5045174;28;20463;-51
2023/10/13 08:49:51;;;;;;;4.80;3.67;;;19.50;71.90;;;;;;5031822;28;20961;-50
2023/10/13 08:52:46;;;;;;;3.87;3.20;;;19.50;72.10;;;;;;5044402;28;20479;-50
2023/10/13 08:58:13;;;;;;;5.57;3.70;;;19.50;72.00;;;;;;5064899;28;20458;-51
2023/10/13 09:01:11;;;;;;;3.27;2.97;;;19.50;71.60;;;;;;5048874;28;20426;-51
2023/10/13 09:03:42;;;;;;;8.20;4.13;;;19.50;71.60;;;;;;5050540;28;20948;-49
2023/10/13 09:06:14;;;;;;;6.53;3.90;;;19.50;72.10;;;;;;5035918;28;20566;-49
2023/10/13 09:09:04;;;;;;;4.80;3.60;;;19.50;71.90;;;;;;5039928;28;20443;-51
2023/10/13 09:11:48;;;;;;;4.13;3.73;;;19.50;71.90;;;;;;5050367;28;20513;-50
2023/10/13 09:14:33;;;;;;;5.97;4.17;;;19.50;71.90;;;;;;5046330;28;20992;-49
2023/10/13 09:17:08;;;;;;;5.77;3.90;;;19.50;72.10;;;;;;5033166;28;21008;-49
2023/10/13 09:19:49;;;;;;;5.63;3.57;;;19.50;71.80;;;;;;5021268;28;20485;-49
2023/10/13 09:22:26;;;;;;;5.90;3.53;;;19.50;71.50;;;;;;5025828;28;21006;-50
2023/10/13 09:25:02;;;;;;;4.93;3.93;;;19.50;71.50;;;;;;5044941;28;20557;-50
2023/10/13 09:27:32;;;;;;;4.73;3.50;;;19.50;71.40;;;;;;5047720;28;20479;-49
2023/10/13 09:30:06;;;;;;;6.10;4.10;;;19.50;71.40;;;;;;5047394;28;20451;-50
2023/10/13 09:32:45;;;;;;;6.57;3.90;;;19.50;71.30;;;;;;5050360;28;21051;-51
2023/10/13 09:35:18;;;;;;;5.07;4.33;;;19.50;71.40;;;;;;5048165;28;20461;-49
2023/10/13 09:37:46;;;;;;;5.23;4.43;;;19.50;71.80;;;;;;5039322;28;20479;-50
2023/10/13 09:40:34;;;;;;;5.68;4.43;;;19.60;71.20;;;;;;5043808;28;20447;-51
2023/10/13 09:43:07;;;;;;;6.97;3.90;;;19.70;71.40;;;;;;5058948;28;20221;-50
2023/10/13 09:45:39;;;;;;;8.50;3.90;;;19.70;71.40;;;;;;5041638;28;20555;-51
2023/10/13 09:48:16;;;;;;;6.60;4.10;;;19.70;71.00;;;;;;5040102;28;20432;-50
2023/10/13 09:50:49;;;;;;;5.07;4.57;;;19.70;71.20;;;;;;5041691;28;20447;-51
2023/10/13 09:53:18;;;;;;;9.17;4.87;;;19.70;71.50;;;;;;5036834;28;20470;-50
2023/10/13 09:55:51;;;;;;;6.80;4.90;;;19.60;71.60;;;;;;5024215;28;20486;-51
2023/10/13 09:58:20;;;;;;;5.70;4.90;;;19.60;71.70;;;;;;5024167;28;20439;-48
2023/10/13 10:00:57;;;;;;;7.37;5.07;;;19.60;71.70;;;;;;5040044;28;20440;-52
2023/10/13 10:03:39;;;;;;;7.13;5.20;;;19.60;71.90;;;;;;5040248;28;20471;-52
2023/10/13 10:06:18;;;;;;;7.27;4.90;;;19.60;72.10;;;;;;5057164;28;20463;-51
2023/10/13 10:08:50;;;;;;;7.70;4.90;;;19.60;71.90;;;;;;5038615;28;20478;-51
2023/10/13 10:11:35;;;;;;;5.90;4.90;;;19.60;71.70;;;;;;5045140;28;20446;-50
2023/10/13 10:14:12;;;;;;;4.50;4.10;;;19.60;71.70;;;;;;5041898;28;20447;-51
2023/10/13 10:16:59;;;;;;;6.43;5.00;;;19.60;71.70;;;;;;5021527;28;20554;-51
2023/10/13 10:19:35;;;;;;;6.70;4.60;;;19.60;72.10;;;;;;5040324;28;21000;-51
2023/10/13 10:22:16;;;;;;;6.17;4.43;;;19.60;71.70;;;;;;5037599;28;20865;-50
2023/10/13 10:24:45;;;;;;;6.17;4.27;;;19.60;71.80;;;;;;5039528;28;20476;-51
2023/10/13 10:27:25;;;;;;;5.77;4.83;;;19.60;71.60;;;;;;5038259;28;20475;-51
2023/10/13 10:29:57;;;;;;;7.30;5.23;;;19.60;71.80;;;;;;5025983;28;20436;-50
2023/10/13 10:32:36;;;;;;;5.93;4.83;;;19.60;71.80;;;;;;5040600;28;20475;-51
2023/10/13 10:35:09;;;;;;;6.30;4.03;;;19.60;71.80;;;;;;5058090;28;20885;-51
2023/10/13 10:37:46;;;;;;;5.27;4.00;;;19.60;71.60;;;;;;5018484;28;20475;-50
2023/10/13 10:40:41;;;;;;;6.93;5.00;;;19.60;71.60;;;;;;5037507;28;20862;-51
2023/10/13 10:43:08;;;;;;;5.43;4.40;;;19.60;71.50;;;;;;5070039;28;20773;-51
2023/10/13 10:46:00;;;;;;;5.73;5.13;;;19.60;71.80;;;;;;5058345;28;20500;-51
2023/10/13 10:48:34;;;;;;;7.10;5.30;;;19.70;71.90;;;;;;5047302;28;20853;-49
2023/10/13 10:51:13;;;;;;;6.70;5.23;;;19.70;71.80;;;;;;5032195;28;20957;-50
2023/10/13 10:53:46;;;;;;;7.40;4.50;;;19.70;71.60;;;;;;5048512;28;20763;-50
2023/10/13 10:56:23;;;;;;;5.90;4.60;;;19.70;71.60;;;;;;5065671;28;21030;-51
2023/10/13 10:58:55;;;;;;;7.30;5.23;;;19.70;71.60;;;;;;5048000;28;20429;-50
2023/10/13 11:01:25;;;;;;;5.10;4.60;;;19.70;71.50;;;;;;5042480;28;20522;-51
2023/10/13 11:04:07;;;;;;;8.30;5.27;;;19.70;71.70;;;;;;5035998;28;20478;-51
2023/10/13 11:06:42;;;;;;;4.80;4.30;;;19.70;71.50;;;;;;5045564;28;20542;-51
2023/10/13 11:09:31;;;;;;;6.60;4.87;;;19.60;71.40;;;;;;5050368;28;20532;-49
2023/10/13 11:12:23;;;;;;;6.40;4.57;;;19.60;71.80;;;;;;5049489;28;20507;-51
2023/10/13 11:15:02;;;;;;;6.57;4.90;;;19.60;71.40;;;;;;5047088;28;20845;-51
2023/10/13 11:17:43;;;;;;;6.10;5.00;;;19.60;71.50;;;;;;5041017;28;20466;-48
2023/10/13 11:20:17;;;;;;;5.67;5.10;;;19.70;71.50;;;;;;5067333;28;20939;-51
2023/10/13 11:22:49;;;;;;;7.40;5.30;;;19.70;71.40;;;;;;5024047;28;20537;-49
2023/10/13 11:25:29;;;;;;;11.07;5.53;;;19.60;71.60;;;;;;5010447;28;20479;-51
2023/10/13 11:27:59;;;;;;;5.63;4.80;;;19.70;71.60;;;;;;5043602;28;20502;-51
2023/10/13 11:30:41;;;;;;;7.23;4.30;;;19.70;71.60;;;;;;5045666;28;20459;-50
2023/10/13 11:33:11;;;;;;;5.10;4.13;;;19.70;71.60;;;;;;5059403;28;20468;-50
2023/10/13 11:38:27;;;;;;;5.23;4.50;;;19.70;71.50;;;;;;5039819;28;20439;-50
2023/10/13 11:41:15;;;;;;;6.93;5.17;;;19.70;71.50;;;;;;5027353;28;20487;-50
2023/10/13 11:44:04;;;;;;;5.70;5.20;;;19.70;71.60;;;;;;5041946;28;20475;-50
2023/10/13 11:49:19;;;;;;;6.33;4.97;;;19.70;71.30;;;;;;5028375;28;20558;-51
2023/10/13 11:51:49;;;;;;;5.30;4.47;;;19.60;71.50;;;;;;5039163;28;20553;-49
2023/10/13 11:54:18;;;;;;;10.07;5.00;;;19.70;71.30;;;;;;5044546;28;20876;-51
2023/10/13 11:56:49;;;;;;;7.70;5.00;;;19.70;71.40;;;;;;5029769;28;20976;-51
2023/10/13 11:59:27;;;;;;;6.27;4.57;;;19.70;71.50;;;;;;5028526;28;20439;-51
2023/10/13 12:04:51;;;;;;;5.43;4.57;;;19.70;71.30;;;;;;5043127;28;20487;-50
2023/10/13 12:07:21;;;;;;;9.60;4.97;;;19.60;71.10;;;;;;5038949;28;20503;-50
2023/10/13 12:12:43;;;;;;;7.10;4.20;;;19.70;71.20;;;;;;5040563;28;20838;-51
2023/10/13 12:15:25;;;;;;;8.20;4.60;;;19.70;71.20;;;;;;5041228;28;20903;-51
2023/10/13 12:17:57;;;;;;;7.07;4.50;;;19.70;71.20;;;;;;5039883;28;20848;-51
2023/10/13 12:20:33;;;;;;;7.37;4.50;;;19.70;71.10;;;;;;5043251;28;20428;-50
2023/10/13 12:23:15;;;;;;;8.60;5.43;;;19.70;71.20;;;;;;5045502;28;20493;-51
2023/10/13 12:26:00;;;;;;;8.27;5.33;;;19.60;71.10;;;;;;5061472;28;20474;-51
2023/10/13 12:28:37;;;;;;;7.17;4.93;;;19.70;71.20;;;;;;5062805;28;20431;-51
2023/10/13 12:31:11;;;;;;;6.50;4.53;;;19.70;71.10;;;;;;5043613;28;20435;-50
2023/10/13 12:33:40;;;;;;;8.33;5.37;;;19.70;72.30;;;;;;5057618;28;20501;-50
2023/10/13 12:36:15;;;;;;;7.23;5.13;;;19.70;71.00;;;;;;5061621;28;20859;-50
2023/10/13 12:50:23;;;;;;;7.47;5.20;;;19.70;70.80;;;;;;5051385;28;20439;-51
2023/10/13 12:52:52;;;;;;;6.33;4.90;;;19.70;70.70;;;;;;5061041;28;20479;-50
2023/10/13 12:55:24;;;;;;;5.60;4.70;;;19.70;70.60;;;;;;5049127;28;20885;-51
2023/10/13 12:57:53;;;;;;;6.13;4.97;;;19.70;70.60;;;;;;5063831;28;20846;-51
2023/10/13 13:00:32;;;;;;;7.07;4.13;;;19.70;70.60;;;;;;5063065;28;20527;-51
2023/10/13 13:03:11;;;;;;;5.33;4.30;;;19.70;70.60;;;;;;5061670;28;20443;-50
2023/10/13 13:05:44;;;;;;;7.40;5.00;;;19.70;70.50;;;;;;5063954;28;20470;-50
2023/10/13 13:08:21;;;;;;;10.00;4.77;;;19.70;70.40;;;;;;5047351;28;20578;-51
2023/10/13 13:10:51;;;;;;;6.30;5.10;;;19.70;70.30;;;;;;5070073;28;20434;-51
2023/10/13 13:13:24;;;;;;;5.27;4.40;;;19.70;70.40;;;;;;5064705;28;20444;-50
2023/10/13 13:15:54;;;;;;;7.90;4.37;;;19.70;70.30;;;;;;5047776;28;20855;-50
2023/10/13 13:18:22;;;;;;;8.37;4.97;;;19.70;70.10;;;;;;5064241;28;20637;-51
2023/10/13 13:20:55;;;;;;;8.90;4.73;;;19.70;70.00;;;;;;5047820;28;20431;-51
2023/10/13 13:23:25;;;;;;;9.30;4.73;;;19.70;70.00;;;;;;5058299;28;20501;-51
2023/10/13 13:25:56;;;;;;;8.80;5.27;;;19.70;70.20;;;;;;5065341;28;20968;-51
2023/10/13 13:28:28;;;;;;;6.57;5.37;;;19.80;70.30;;;;;;5065859;28;20935;-51
2023/10/13 13:30:59;;;;;;;6.47;4.67;;;19.80;70.20;;;;;;5063917;28;21041;-51
2023/10/13 13:33:33;;;;;;;9.53;5.07;;;19.70;70.20;;;;;;5064009;28;20427;-51
2023/10/13 13:36:01;;;;;;;6.17;5.10;;;19.80;70.10;;;;;;5050603;28;20517;-51
2023/10/13 13:38:31;;;;;;;7.93;4.73;;;19.80;70.10;;;;;;5057842;28;20501;-52
2023/10/13 13:41:02;;;;;;;6.40;4.43;;;19.80;70.10;;;;;;5051658;28;20487;-50
2023/10/13 13:43:38;;;;;;;12.20;5.07;;;19.70;70.00;;;;;;5061954;28;20432;-51
2023/10/13 13:46:11;;;;;;;7.50;4.97;;;19.70;70.00;;;;;;5060171;28;20490;-51
2023/10/13 13:48:42;;;;;;;6.50;5.30;;;19.80;70.20;;;;;;5054148;28;20462;-51
2023/10/13 13:51:14;;;;;;;6.53;4.97;;;19.80;70.20;;;;;;5062100;28;20610;-51
2023/10/13 13:53:47;;;;;;;8.20;4.63;;;19.70;70.20;;;;;;5059606;28;21141;-51
2023/10/13 13:56:18;;;;;;;8.13;4.60;;;19.70;70.20;;;;;;5058966;28;20451;-51
2023/10/13 13:58:47;;;;;;;5.80;4.30;;;19.80;70.30;;;;;;5047148;28;20438;-51
2023/10/13 14:01:19;;;;;;;6.10;4.67;;;19.80;70.30;;;;;;5053892;28;20948;-51
2023/10/13 14:03:50;;;;;;;5.60;4.40;;;19.70;70.50;;;;;;5060983;28;20466;-51
2023/10/13 14:06:23;;;;;;;6.00;5.30;;;19.80;70.40;;;;;;5062478;28;20458;-51
2023/10/13 14:08:54;;;;;;;7.00;4.83;;;19.80;70.30;;;;;;5059324;28;20436;-51
2023/10/13 14:14:28;;;;;;;5.73;4.60;;;19.70;70.30;;;;;;5017769;28;20462;-49
2023/10/13 14:17:06;;;;;;;6.50;4.47;;;19.80;70.30;;;;;;5058505;28;20475;-51
2023/10/13 14:19:40;;;;;;;7.73;5.60;;;19.80;70.30;;;;;;5051947;28;20450;-51
2023/10/13 14:22:11;;;;;;;6.23;5.00;;;19.80;70.40;;;;;;5052081;28;20500;-50
2023/10/13 14:24:51;;;;;;;6.83;4.17;;;19.80;70.40;;;;;;5066424;28;20549;-50
2023/10/13 14:27:22;;;;;;;7.00;4.70;;;19.70;70.30;;;;;;5059985;28;20462;-51
2023/10/13 14:29:53;;;;;;;7.07;4.27;;;19.80;71.60;;;;;;5044784;28;20849;-51
2023/10/13 14:32:27;;;;;;;4.93;4.30;;;19.70;70.40;;;;;;5059249;28;20520;-51
2023/10/13 14:34:56;;;;;;;5.83;5.00;;;19.70;70.30;;;;;;5060991;28;20451;-50
2023/10/13 14:37:30;;;;;;;5.57;4.93;;;19.70;70.40;;;;;;5042754;28;20475;-50
2023/10/13 14:39:59;;;;;;;7.67;4.97;;;19.80;70.40;;;;;;5066057;28;20442;-51
2023/10/13 14:42:35;;;;;;;7.30;4.40;;;19.80;70.40;;;;;;5061471;28;20462;-52
2023/10/13 14:45:11;;;;;;;8.33;4.67;;;19.80;70.40;;;;;;5050628;28;20478;-51
2023/10/13 14:47:42;;;;;;;8.30;5.40;;;19.80;70.30;;;;;;5047021;28;20512;-52
2023/10/13 14:50:17;;;;;;;5.10;4.17;;;19.80;70.30;;;;;;5058669;28;20544;-50
2023/10/13 14:52:45;;;;;;;6.07;4.53;;;19.80;70.30;;;;;;5038902;28;20478;-51
2023/10/13 14:55:19;;;;;;;6.57;4.90;;;19.80;70.30;;;;;;5066748;28;20455;-51
2023/10/13 14:57:49;;;;;;;6.40;4.57;;;19.80;70.30;;;;;;5046070;28;20454;-49
2023/10/13 15:00:27;;;;;;;7.20;4.27;;;19.80;70.10;;;;;;5071116;28;20439;-49
2023/10/13 15:03:01;;;;;;;6.93;3.93;;;19.80;70.00;;;;;;5055684;28;20483;-51
2023/10/13 15:05:31;;;;;;;5.57;4.77;;;19.80;70.00;;;;;;5065143;28;20552;-51
2023/10/13 15:07:59;;;;;;;6.70;4.53;;;19.80;70.00;;;;;;5057850;28;20507;-51
2023/10/13 15:10:28;;;;;;;7.70;4.50;;;19.80;70.10;;;;;;5061005;28;20451;-51
2023/10/13 15:12:59;;;;;;;8.20;4.70;;;19.80;70.00;;;;;;5067468;28;20469;-51
2023/10/13 15:15:32;;;;;;;8.43;4.50;;;19.80;70.00;;;;;;5043260;28;20517;-50
2023/10/13 15:18:01;;;;;;;8.40;4.40;;;19.80;70.00;;;;;;5061780;28;20450;-50
2023/10/13 15:20:30;;;;;;;15.73;5.10;;;19.80;70.00;;;;;;5068721;28;20442;-51
2023/10/13 15:23:00;;;;;;;6.57;4.20;;;19.90;70.00;;;;;;5041904;28;20945;-51
2023/10/13 15:25:39;;;;;;;8.90;5.50;;;19.90;69.90;;;;;;5059227;28;20494;-50
2023/10/13 15:28:09;;;;;;;5.83;4.20;;;19.90;70.30;;;;;;5044711;28;21430;-49
2023/10/13 15:30:48;;;;;;;9.70;5.63;;;19.90;70.00;;;;;;5050823;28;21008;-49
2023/10/13 15:33:19;;;;;;;10.40;5.55;;;20.00;70.10;;;;;;5065477;28;20443;-50